Cisco Butte, California Weather observations

Data are for observation ending at time listed.
 Day   Time    Ave.   Ave.  Ave.  Vector   Max.   Stn.    Total    Solar   Ave.   Snow 
  of    of     Air    Rel.  Wind   Wind    Wind   Baro.  Precip.   Rad.    Soil   Depth
Year   Day     Temp.  Hum.  Speed  Dir.    Gust   Pres.                    Temp.       
2016   (PST)    F      %     mph   deg.    mph     mb.     in.     W/m2     F      in. 
---------------------------------------------------------------------------------------  
 178    2:50   59.6    42    6.7   102      9.2   827.0    0.00       0    999.0   31.9
 178    3:00   59.2    42    6.2   100      8.0   827.0    0.00       0    999.0   80.1
 178    3:10   58.6    44    5.7   102      8.7   827.0    0.00       0    999.0   56.0
 178    3:20   58.2    44    4.8    94      8.7   827.0    0.00       0    999.0   80.2
 178    3:30   58.0    45    4.8    91      6.6   827.0    0.00       0    999.0   80.2
 178    3:40   58.0    45    4.5    95      7.0   827.0    0.00       0    999.0   80.2
 178    3:50   57.7    46    4.9    99      7.5   827.0    0.00       0    999.0   80.3
 178    4:00   57.5    46    5.1    97      7.4   827.0    0.00       0    999.0   64.1
 178    4:10   57.3    46    5.7   100      8.0   827.0    0.00       0    999.0   80.2
 178    4:20   56.8    47    5.7    99      8.3   827.0    0.00       0    999.0   72.2
 178    4:30   56.1    48    7.1   101     10.6   827.0    0.00       1    999.0   56.0
 178    4:40   55.3    50    6.9   101      9.6   827.0    0.00       2    999.0   72.2
 178    4:50   54.9    51    7.3   103     10.8   827.0    0.00       3    999.0   72.2
 178    5:00   55.3    50    7.2   107     11.1   827.0    0.00       7    999.0   55.6
 178    5:10   56.6    47    7.2   103     11.4   828.0    0.00      26    999.0   48.4
 178    5:20   56.4    47    7.2   100     10.0   828.0    0.00      38    999.0   47.5
 178    5:30   56.5    48    7.9   104     12.2   828.0    0.00      50    999.0   24.1
 178    5:40   56.7    48    6.9   108     11.4   828.0    0.00      65    999.0   72.1
 178    5:50   57.3    45    6.0    94      8.6   828.0    0.00      81    999.0   80.1
 178    6:00   58.9    42    4.8    93      8.0   828.0    0.00      99    999.0   80.0
 178    6:10   59.4    42    4.3    96      6.3   828.0    0.00     118    999.0   63.8
 178    6:20   60.1    42    4.4   101      6.6   828.0    0.00     138    999.0   71.9
 178    6:30   60.4    40    4.1   103      6.7   828.0    0.00     158    999.0  132.2
 178    6:40   61.5    39    3.6    92      6.6   828.0    0.00     179    999.0   94.4
 178    6:50   62.8    38    3.2    96      5.8   828.0    0.00     201    999.0   71.8
 178    7:00   63.0    37    4.0   105      6.3   828.0    0.00     224    999.0   80.0
 178    7:10   63.6    36    3.8    95      5.6   828.0    0.00     246    999.0   80.0
 178    7:20   65.0    35    2.9    97      4.9   828.0    0.00     268    999.0   79.8
 178    7:30   66.6    34    2.6   111      3.8   828.0    0.00     289    999.0   71.4
 178    7:40   67.5    32    3.6    99      5.7   828.0    0.00     310    999.0   64.1
 178    7:50   67.9    31    3.9    91      6.6   828.0    0.00     332    999.0   79.7
 178    8:00   68.6    32    2.2   135      4.9   828.0    0.00     352    999.0   55.4
 178    8:10   70.3    31    1.5   110      4.5   828.0    0.00     370    999.0   55.4
 178    8:20   70.3    25    2.8   185      5.5   828.0    0.00     390    999.0   46.9
 178    8:30   72.1    25    1.5   252      4.2   828.0    0.00     408    999.0   55.5
 178    8:40   72.3    22    2.6   299      6.0   828.0    0.00     426    999.0   79.8
 178    8:50   73.6    18    1.2   248      5.0   828.0    0.00     444    999.0   47.0
 178    9:00   75.0    17    2.9   273      9.3   828.0    0.00     463    999.0   79.8
 178    9:10   73.2    16    3.8   282      8.6   828.0    0.00     480    999.0   79.9
 178    9:20   74.1    21    3.0   279      6.3   828.0    0.00     495    999.0   63.6
 178    9:30   73.7    21    5.8   283     10.7   828.0    0.00     511    999.0   80.0
 178    9:40   73.7    16    7.6   270     11.2   828.0    0.00     528    999.0   71.9
 178    9:50   73.6    15    7.2   280     12.1   828.0    0.00     544    999.0   80.2
 178   10:00   73.6    16    6.0   271     11.5   828.0    0.00     556    999.0   80.1
 178   10:10   73.6    14    8.3   278     12.1   828.0    0.00     569    999.0   80.2
 178   10:20   73.8    13    8.8   274     13.4   828.0    0.00     583    999.0   80.3
 178   10:30   73.5    15    6.9   274     12.0   828.0    0.00     592    999.0   72.2
 178   10:40   74.6    16    6.8   260     12.0   828.0    0.00     601    999.0   80.2
 178   10:50   74.9    19    7.0   281     11.6   828.0    0.00     608    999.0   72.0
 178   11:00   74.1    20    7.2   270     14.0   828.0    0.00     617    999.0   72.1
 178   11:10   73.8    20    6.7   282     11.7   828.0    0.00     623    999.0   80.3
 178   11:20   74.9    20    8.0   269     14.5   828.0    0.00     626    999.0   80.3
 178   11:30   75.2    19    8.1   278     13.9   829.0    0.00     170    999.0   80.3
 178   11:40   74.9    20    9.4   282     15.1   829.0    0.00     125    999.0   79.8
 178   11:50   74.3    20    8.6   286     15.5   829.0    0.00     627    999.0   72.6
 178   12:00   75.2    21   10.5   280     17.0   829.0    0.00     637    999.0   72.1
 178   12:10   74.7    22    9.4   275     16.5   829.0    0.00     637    999.0   80.2
 178   12:20   75.1    21   11.0   278     17.5   829.0    0.00     635    999.0   72.1
 178   12:30   74.8    21   11.2   278     16.6   829.0    0.00     639    999.0   72.2
 178   12:40   75.1    20   10.5   279     17.5   829.0    0.00     638    999.0   64.1
 178   12:50   75.6    20    9.2   283     14.1   829.0    0.00     615    999.0   80.2
 178   13:00   75.7    19   11.6   282     16.7   829.0    0.00     630    999.0   80.2
 178   13:10   75.2    18   12.2   282     16.5   829.0    0.00     621    999.0   80.2
 178   13:20   75.3    19   11.4   280     16.1   829.0    0.00     606    999.0   80.2
 178   13:30   75.8    18    9.8   271     17.3   829.0    0.00     609    999.0   72.2
 178   13:40   76.2    18   10.2   279     15.6   829.0    0.00     600    999.0   71.7
 178   13:50   75.8    18   11.6   278     17.1   829.0    0.00     582    999.0   72.2
 178   14:00   76.4    18    9.8   278     16.5   829.0    0.00     570    999.0   72.6
 178   14:10   76.3    19   12.5   275     19.0   829.0    0.00     460    999.0   64.0
 178   14:20   76.3    19   11.1   274     18.1   828.0    0.00     540    999.0   72.0
 178   14:30   76.4    20   10.4   283     19.6   829.0    0.00     542    999.0   55.9
 178   14:40   76.3    19   12.4   274     18.6   828.0    0.00     529    999.0   72.1
 178   14:50   76.1    19    9.5   280     13.1   828.0    0.00     513    999.0   80.2
 178   15:00   76.8    20   10.3   276     19.0   828.0    0.00     352    999.0   80.1
 178   15:10   76.4    20   10.1   283     17.1   828.0    0.00      49    999.0   80.0
 178   15:20   75.7    21   11.7   280     18.7   828.0    0.00      17    999.0   80.2
 178   15:30   75.8    22   13.1   278     21.0   828.0    0.00      17    999.0   64.0
 178   15:40   75.6    22   10.8   281     17.5   828.0    0.00      17    999.0   72.1
 178   15:50   75.7    23   10.8   277     16.0   828.0    0.00     253    999.0   80.1
 178   16:00   75.8    23   12.2   280     17.0   828.0    0.00     383    999.0   80.2
 178   16:10   75.2    23   12.5   280     18.5   828.0    0.00     370    999.0   72.1
 178   16:20   75.4    23   11.6   273     17.0   828.0    0.00     350    999.0   79.5
 178   16:30   75.2    23   11.9   278     18.6   828.0    0.00     315    999.0   64.0
 178   16:40   75.1    24   10.5   280     14.8   828.0    0.00     284    999.0   71.7
 178   16:50   74.8    23   12.1   281     16.7   828.0    0.00     104    999.0   72.5
 178   17:00   74.8    24    9.8   280     16.0   828.0    0.00      21    999.0   63.8
 178   17:10   73.7    24   10.7   282     15.1   828.0    0.00      28    999.0   80.1
 178   17:20   73.0    26   10.3   283     15.3   828.0    0.00      26    999.0   72.1
 178   17:30   73.0    26   10.8   279     14.1   828.0    0.00      68    999.0   55.7
 178   17:40   73.6    26    9.0   277     13.8   829.0    0.00     170    999.0   63.8
 178   17:50   73.5    26    7.8   278     14.3   829.0    0.00     112    999.0   80.0
 178   18:00   73.1    26    8.1   278     12.1   829.0    0.00      63    999.0   80.1
 178   18:10   72.7    26    7.7   274     12.9   829.0    0.00      93    999.0   80.2
 178   18:20   71.3    28    7.7   279     11.5   829.0    0.00      24    999.0   80.1
 178   18:30   70.8    28    7.4   279     11.2   829.0    0.00      20    999.0   79.9
 178   18:40   70.1    28    6.9   278     10.4   829.0    0.00      21    999.0   80.0
 178   18:50   69.7    29    6.4   276      9.7   829.0    0.00      17    999.0   79.9
 178   19:00   69.5    30    6.6   273      9.4   829.0    0.00      31    999.0   79.7
 178   19:10   68.8    31    5.5   275      8.0   829.0    0.00      10    999.0   79.8
 178   19:20   67.9    32    6.3   276      8.2   829.0    0.00       5    999.0   79.9
 178   19:30   67.4    32    6.6   277      8.2   829.0    0.00       4    999.0   80.0
 178   19:40   67.0    33    6.2   276      8.3   829.0    0.00       2    999.0   80.0
 178   19:50   66.0    35    3.5   277      6.0   829.0    0.00       1    999.0   80.1
 178   20:00   65.5    35    2.8   272      5.2   829.0    0.00       0    999.0   80.2
 178   20:10   64.8    36    1.1   259      3.1   829.0    0.00       0    999.0   72.3
 178   20:20   64.5    35    0.3   272      2.1   830.0    0.00       0    999.0   80.4
 178   20:30   64.7    36    1.2    96      2.6   830.0    0.00       0    999.0   72.3
 178   20:40   64.5    37    2.3    81      3.1   830.0    0.00       0    999.0   80.2
 178   20:50   63.9    39    3.5    79      5.0   830.0    0.00       0    999.0   72.1
 178   21:00   61.9    44    3.7    88      6.1   830.0    0.00       0    999.0  102.9
 178   21:10   61.2    44    3.7    93      5.9   830.0    0.00       0    999.0  109.6
 178   21:20   60.5    46    4.5    97      8.6   830.0    0.00       0    999.0   86.0
 178   21:30   60.2    47    5.4   103      8.2   830.0    0.00       0    999.0   56.4
 178   21:40   59.7    48    5.3   102      9.0   830.0    0.00       0    999.0   47.9
 178   21:50   59.8    47    4.3   104      8.4   830.0    0.00       0    999.0   64.0
 178   22:00   59.5    48    4.8    98      6.9   830.0    0.00       0    999.0   80.1
 178   22:10   59.0    49    7.3   109     11.8   830.0    0.00       0    999.0   47.8
 178   22:20   58.6    50    6.6   105     11.8   830.0    0.00       0    999.0   64.0
 178   22:30   58.9    48    5.7   103      8.7   830.0    0.00       0    999.0   72.0
 178   22:40   58.9    48    4.7    97      6.8   830.0    0.00       0    999.0   72.0
 178   22:50   59.1    46    5.1    96      7.7   830.0    0.00       0    999.0   64.0
 178   23:00   59.3    44    4.0    81      7.1   830.0    0.00       0    999.0   72.1
 178   23:10   59.1    44    4.1    85      6.2   830.0    0.00       0    999.0   80.1
 178   23:20   58.4    44    4.3    86      7.5   830.0    0.00       0    999.0   72.1
 178   23:30   57.9    42    4.2    81      7.3   830.0    0.00       0    999.0   72.2
 178   23:40   57.7    42    5.0    90      7.9   830.0    0.00       0    999.0   80.3
 178   23:50   57.7    41    4.2    89      7.6   830.0    0.00       0    999.0   72.2
 179    0:00   57.9    39    3.4    82      5.0   830.0    0.00       0    999.0   80.3
 179    0:10   57.4    40    3.2    83      5.0   830.0    0.00       0    999.0  102.3
 179    0:20   56.9    40    4.9    84      7.3   830.0    0.00       0    999.0   80.3
 179    0:30   56.3    38    4.9    95      7.8   830.0    0.00       0    999.0   80.3
 179    0:40   56.4    35    6.0    98     10.7   830.0    0.00       0    999.0   64.2
 179    0:50   56.7    34    5.3    89      8.9   829.0    0.00       0    999.0   64.2
 179    1:00   56.9    32    4.6    93      7.5   829.0    0.00       0    999.0  102.8
 179    1:10   56.6    32    6.6   104     11.5   829.0    0.00       0    999.0   94.5
 179    1:20   56.4    31    7.5   107     11.1   829.0    0.00       0    999.0  147.7
 179    1:30   56.0    31    8.6   111     11.8   829.0    0.00       0    999.0  154.9
 179    1:40   56.6    30    8.7   112     11.8   829.0    0.00       0    999.0  155.0
 179    1:50   56.3    31    8.6   113     11.3   829.0    0.00       0    999.0  155.0
 179    2:00   56.0    31    8.3   109     11.4   829.0    0.00       0    999.0  155.1
 179    2:10   56.8    30    8.9   109     11.8   829.0    0.00       0    999.0  155.0
 179    2:20   57.3    30    8.8   106     11.9   829.0    0.00       0    999.0  154.9
 179    2:30   57.0    31    7.7   104     10.1   829.0    0.00       0    999.0  154.9
 179    2:40   57.2    31    8.6   106     10.7   829.0    0.00       0    999.0  154.9

Return to Cisco Butte graphs page.


Western Regional Climate Center,wrcc@dri.edu